sensor_id;sensor_type;location;lat;lon;timestamp;P1;durP1;ratioP1;P2;durP2;ratioP2
55082;SDS011;40978;52.850;6.506;2022-07-24T00:00:15;6.53;;;5.18;;
55082;SDS011;40978;52.850;6.506;2022-07-24T00:02:41;6.32;;;5.50;;
55082;SDS011;40978;52.850;6.506;2022-07-24T00:05:07;5.82;;;5.22;;
55082;SDS011;40978;52.850;6.506;2022-07-24T00:07:34;5.57;;;5.05;;
55082;SDS011;40978;52.850;6.506;2022-07-24T00:10:00;6.45;;;5.68;;
55082;SDS011;40978;52.850;6.506;2022-07-24T00:12:27;6.40;;;5.15;;
55082;SDS011;40978;52.850;6.506;2022-07-24T00:14:53;6.28;;;5.63;;
55082;SDS011;40978;52.850;6.506;2022-07-24T00:17:19;7.00;;;5.97;;
55082;SDS011;40978;52.850;6.506;2022-07-24T00:19:45;6.30;;;5.75;;
55082;SDS011;40978;52.850;6.506;2022-07-24T00:22:10;8.30;;;6.47;;
55082;SDS011;40978;52.850;6.506;2022-07-24T00:24:36;6.63;;;5.70;;
55082;SDS011;40978;52.850;6.506;2022-07-24T00:27:02;5.88;;;5.28;;
55082;SDS011;40978;52.850;6.506;2022-07-24T00:29:28;6.57;;;5.93;;
55082;SDS011;40978;52.850;6.506;2022-07-24T00:31:54;7.25;;;6.18;;
55082;SDS011;40978;52.850;6.506;2022-07-24T00:34:19;7.68;;;5.78;;
55082;SDS011;40978;52.850;6.506;2022-07-24T00:36:45;6.95;;;6.25;;
55082;SDS011;40978;52.850;6.506;2022-07-24T00:39:11;6.75;;;5.70;;
55082;SDS011;40978;52.850;6.506;2022-07-24T00:41:37;7.60;;;6.97;;
55082;SDS011;40978;52.850;6.506;2022-07-24T00:44:05;7.65;;;6.93;;
55082;SDS011;40978;52.850;6.506;2022-07-24T00:46:33;6.47;;;5.88;;
55082;SDS011;40978;52.850;6.506;2022-07-24T00:49:00;7.90;;;7.20;;
55082;SDS011;40978;52.850;6.506;2022-07-24T00:51:28;8.32;;;6.47;;
55082;SDS011;40978;52.850;6.506;2022-07-24T00:53:54;7.45;;;6.55;;
55082;SDS011;40978;52.850;6.506;2022-07-24T00:56:20;7.80;;;7.10;;
55082;SDS011;40978;52.850;6.506;2022-07-24T00:58:46;9.00;;;7.60;;
55082;SDS011;40978;52.850;6.506;2022-07-24T01:01:13;7.53;;;6.82;;
55082;SDS011;40978;52.850;6.506;2022-07-24T01:03:39;8.05;;;7.25;;
55082;SDS011;40978;52.850;6.506;2022-07-24T01:06:05;8.10;;;6.93;;
55082;SDS011;40978;52.850;6.506;2022-07-24T01:08:32;8.40;;;7.60;;
55082;SDS011;40978;52.850;6.506;2022-07-24T01:10:59;8.13;;;7.32;;
55082;SDS011;40978;52.850;6.506;2022-07-24T01:13:26;7.97;;;7.32;;
55082;SDS011;40978;52.850;6.506;2022-07-24T01:15:53;9.93;;;8.10;;
55082;SDS011;40978;52.850;6.506;2022-07-24T01:18:19;8.85;;;7.95;;
55082;SDS011;40978;52.850;6.506;2022-07-24T01:20:48;8.68;;;7.95;;
55082;SDS011;40978;52.850;6.506;2022-07-24T01:23:14;8.13;;;7.43;;
55082;SDS011;40978;52.850;6.506;2022-07-24T01:25:40;9.27;;;8.23;;
55082;SDS011;40978;52.850;6.506;2022-07-24T01:28:06;8.38;;;7.57;;
55082;SDS011;40978;52.850;6.506;2022-07-24T01:30:32;8.10;;;7.40;;
55082;SDS011;40978;52.850;6.506;2022-07-24T01:32:58;8.55;;;7.75;;
55082;SDS011;40978;52.850;6.506;2022-07-24T01:35:24;8.95;;;8.00;;
55082;SDS011;40978;52.850;6.506;2022-07-24T01:37:51;8.05;;;7.25;;
55082;SDS011;40978;52.850;6.506;2022-07-24T01:40:18;9.20;;;8.00;;
55082;SDS011;40978;52.850;6.506;2022-07-24T01:42:45;9.25;;;8.38;;
55082;SDS011;40978;52.850;6.506;2022-07-24T01:45:11;10.52;;;8.48;;
55082;SDS011;40978;52.850;6.506;2022-07-24T01:47:38;9.93;;;8.95;;
55082;SDS011;40978;52.850;6.506;2022-07-24T01:50:05;11.57;;;8.63;;
55082;SDS011;40978;52.850;6.506;2022-07-24T01:52:30;8.80;;;8.00;;
55082;SDS011;40978;52.850;6.506;2022-07-24T01:54:56;10.00;;;8.20;;
55082;SDS011;40978;52.850;6.506;2022-07-24T01:57:22;9.85;;;8.55;;
55082;SDS011;40978;52.850;6.506;2022-07-24T01:59:47;8.77;;;7.97;;
55082;SDS011;40978;52.850;6.506;2022-07-24T02:02:13;8.70;;;7.90;;
55082;SDS011;40978;52.850;6.506;2022-07-24T02:04:39;8.52;;;7.82;;
55082;SDS011;40978;52.850;6.506;2022-07-24T02:07:05;9.50;;;8.27;;
55082;SDS011;40978;52.850;6.506;2022-07-24T02:09:30;9.00;;;8.20;;
55082;SDS011;40978;52.850;6.506;2022-07-24T02:11:56;8.40;;;7.57;;
55082;SDS011;40978;52.850;6.506;2022-07-24T02:14:22;7.97;;;7.28;;
55082;SDS011;40978;52.850;6.506;2022-07-24T02:16:47;9.52;;;8.55;;
55082;SDS011;40978;52.850;6.506;2022-07-24T02:19:13;8.65;;;7.75;;
55082;SDS011;40978;52.850;6.506;2022-07-24T02:21:39;8.98;;;8.23;;
55082;SDS011;40978;52.850;6.506;2022-07-24T02:24:05;9.60;;;8.25;;
55082;SDS011;40978;52.850;6.506;2022-07-24T02:26:30;8.93;;;8.05;;
55082;SDS011;40978;52.850;6.506;2022-07-24T02:28:56;9.18;;;8.32;;
55082;SDS011;40978;52.850;6.506;2022-07-24T02:31:22;9.10;;;8.20;;
55082;SDS011;40978;52.850;6.506;2022-07-24T02:33:48;8.68;;;7.78;;
55082;SDS011;40978;52.850;6.506;2022-07-24T02:36:14;8.93;;;8.13;;
55082;SDS011;40978;52.850;6.506;2022-07-24T02:38:40;8.05;;;7.38;;
55082;SDS011;40978;52.850;6.506;2022-07-24T02:41:06;9.05;;;8.13;;
55082;SDS011;40978;52.850;6.506;2022-07-24T02:43:32;10.63;;;8.85;;
55082;SDS011;40978;52.850;6.506;2022-07-24T02:45:58;8.30;;;7.43;;
55082;SDS011;40978;52.850;6.506;2022-07-24T02:48:23;9.60;;;8.70;;
55082;SDS011;40978;52.850;6.506;2022-07-24T02:50:49;8.52;;;7.72;;
55082;SDS011;40978;52.850;6.506;2022-07-24T02:53:15;8.70;;;7.82;;
55082;SDS011;40978;52.850;6.506;2022-07-24T02:55:40;8.40;;;7.60;;
55082;SDS011;40978;52.850;6.506;2022-07-24T02:58:06;9.18;;;8.20;;
55082;SDS011;40978;52.850;6.506;2022-07-24T03:00:32;8.88;;;7.97;;
55082;SDS011;40978;52.850;6.506;2022-07-24T03:02:58;9.15;;;8.00;;
55082;SDS011;40978;52.850;6.506;2022-07-24T03:05:23;38.70;;;31.52;;
55082;SDS011;40978;52.850;6.506;2022-07-24T03:07:49;13.25;;;11.85;;
55082;SDS011;40978;52.850;6.506;2022-07-24T03:10:15;9.57;;;8.00;;
55082;SDS011;40978;52.850;6.506;2022-07-24T03:12:41;9.10;;;7.32;;
55082;SDS011;40978;52.850;6.506;2022-07-24T03:15:08;7.72;;;7.03;;
55082;SDS011;40978;52.850;6.506;2022-07-24T03:17:34;8.48;;;7.47;;
55082;SDS011;40978;52.850;6.506;2022-07-24T03:19:59;8.38;;;7.57;;
55082;SDS011;40978;52.850;6.506;2022-07-24T03:22:25;9.15;;;8.02;;
55082;SDS011;40978;52.850;6.506;2022-07-24T03:24:51;8.93;;;8.05;;
55082;SDS011;40978;52.850;6.506;2022-07-24T03:27:17;9.20;;;8.27;;
55082;SDS011;40978;52.850;6.506;2022-07-24T03:29:42;9.75;;;8.73;;
55082;SDS011;40978;52.850;6.506;2022-07-24T03:32:08;9.07;;;8.25;;
55082;SDS011;40978;52.850;6.506;2022-07-24T03:34:34;9.80;;;7.25;;
55082;SDS011;40978;52.850;6.506;2022-07-24T03:36:59;8.55;;;7.70;;
55082;SDS011;40978;52.850;6.506;2022-07-24T03:39:25;8.52;;;7.72;;
55082;SDS011;40978;52.850;6.506;2022-07-24T03:41:51;9.20;;;8.43;;
55082;SDS011;40978;52.850;6.506;2022-07-24T03:44:16;8.55;;;7.82;;
55082;SDS011;40978;52.850;6.506;2022-07-24T03:46:42;8.32;;;7.53;;
55082;SDS011;40978;52.850;6.506;2022-07-24T03:49:08;10.55;;;8.02;;
55082;SDS011;40978;52.850;6.506;2022-07-24T03:51:33;10.63;;;8.18;;
55082;SDS011;40978;52.850;6.506;2022-07-24T03:54:00;9.00;;;8.10;;
55082;SDS011;40978;52.850;6.506;2022-07-24T03:56:27;9.13;;;8.23;;
55082;SDS011;40978;52.850;6.506;2022-07-24T03:58:53;8.90;;;8.10;;
55082;SDS011;40978;52.850;6.506;2022-07-24T04:01:19;8.98;;;8.02;;
55082;SDS011;40978;52.850;6.506;2022-07-24T04:03:46;8.27;;;7.45;;
55082;SDS011;40978;52.850;6.506;2022-07-24T04:06:12;8.48;;;7.68;;
55082;SDS011;40978;52.850;6.506;2022-07-24T04:08:38;9.30;;;7.53;;
55082;SDS011;40978;52.850;6.506;2022-07-24T04:11:04;8.23;;;7.43;;
55082;SDS011;40978;52.850;6.506;2022-07-24T04:13:32;8.50;;;7.80;;
55082;SDS011;40978;52.850;6.506;2022-07-24T04:15:58;8.70;;;7.68;;
55082;SDS011;40978;52.850;6.506;2022-07-24T04:18:23;8.60;;;7.82;;
55082;SDS011;40978;52.850;6.506;2022-07-24T04:20:49;9.57;;;7.75;;
55082;SDS011;40978;52.850;6.506;2022-07-24T04:23:15;8.48;;;7.65;;
55082;SDS011;40978;52.850;6.506;2022-07-24T04:25:41;8.32;;;7.63;;
55082;SDS011;40978;52.850;6.506;2022-07-24T04:28:07;8.75;;;7.50;;
55082;SDS011;40978;52.850;6.506;2022-07-24T04:30:33;8.77;;;7.90;;
55082;SDS011;40978;52.850;6.506;2022-07-24T04:32:58;8.40;;;7.60;;
55082;SDS011;40978;52.850;6.506;2022-07-24T04:35:24;8.48;;;7.65;;
55082;SDS011;40978;52.850;6.506;2022-07-24T04:37:50;8.18;;;7.43;;
55082;SDS011;40978;52.850;6.506;2022-07-24T04:40:16;8.57;;;7.78;;
55082;SDS011;40978;52.850;6.506;2022-07-24T04:42:42;8.50;;;7.70;;
55082;SDS011;40978;52.850;6.506;2022-07-24T04:45:07;8.40;;;7.60;;
55082;SDS011;40978;52.850;6.506;2022-07-24T04:47:34;8.85;;;8.02;;
55082;SDS011;40978;52.850;6.506;2022-07-24T04:50:02;8.82;;;7.53;;
55082;SDS011;40978;52.850;6.506;2022-07-24T04:52:29;8.73;;;7.93;;
55082;SDS011;40978;52.850;6.506;2022-07-24T04:54:57;8.68;;;7.97;;
55082;SDS011;40978;52.850;6.506;2022-07-24T04:57:23;9.43;;;8.43;;
55082;SDS011;40978;52.850;6.506;2022-07-24T04:59:49;10.45;;;8.88;;
55082;SDS011;40978;52.850;6.506;2022-07-24T05:02:15;8.60;;;7.80;;
55082;SDS011;40978;52.850;6.506;2022-07-24T05:04:40;8.90;;;7.30;;
55082;SDS011;40978;52.850;6.506;2022-07-24T05:07:06;9.60;;;8.50;;
55082;SDS011;40978;52.850;6.506;2022-07-24T05:09:32;8.70;;;7.82;;
55082;SDS011;40978;52.850;6.506;2022-07-24T05:11:57;8.13;;;7.32;;
55082;SDS011;40978;52.850;6.506;2022-07-24T05:14:23;10.13;;;7.55;;
55082;SDS011;40978;52.850;6.506;2022-07-24T05:16:49;9.40;;;8.38;;
55082;SDS011;40978;52.850;6.506;2022-07-24T05:19:14;9.73;;;8.00;;
55082;SDS011;40978;52.850;6.506;2022-07-24T05:21:40;11.02;;;7.55;;
55082;SDS011;40978;52.850;6.506;2022-07-24T05:24:06;8.60;;;7.75;;
55082;SDS011;40978;52.850;6.506;2022-07-24T05:26:32;10.85;;;7.80;;
55082;SDS011;40978;52.850;6.506;2022-07-24T05:28:58;8.30;;;7.60;;
55082;SDS011;40978;52.850;6.506;2022-07-24T05:31:25;8.68;;;7.88;;
55082;SDS011;40978;52.850;6.506;2022-07-24T05:33:51;9.35;;;8.45;;
55082;SDS011;40978;52.850;6.506;2022-07-24T05:36:16;9.23;;;8.32;;
55082;SDS011;40978;52.850;6.506;2022-07-24T05:38:42;10.65;;;8.60;;
55082;SDS011;40978;52.850;6.506;2022-07-24T05:41:09;10.10;;;8.93;;
55082;SDS011;40978;52.850;6.506;2022-07-24T05:43:35;9.75;;;8.75;;
55082;SDS011;40978;52.850;6.506;2022-07-24T05:46:01;12.05;;;9.00;;
55082;SDS011;40978;52.850;6.506;2022-07-24T05:48:28;10.73;;;9.73;;
55082;SDS011;40978;52.850;6.506;2022-07-24T05:50:54;10.43;;;9.27;;
55082;SDS011;40978;52.850;6.506;2022-07-24T05:53:20;10.55;;;9.65;;
55082;SDS011;40978;52.850;6.506;2022-07-24T05:55:45;10.23;;;9.23;;
55082;SDS011;40978;52.850;6.506;2022-07-24T05:58:11;10.88;;;9.85;;
55082;SDS011;40978;52.850;6.506;2022-07-24T06:00:37;11.55;;;10.27;;
55082;SDS011;40978;52.850;6.506;2022-07-24T06:03:03;11.70;;;9.27;;
55082;SDS011;40978;52.850;6.506;2022-07-24T06:05:28;10.48;;;9.57;;
55082;SDS011;40978;52.850;6.506;2022-07-24T06:07:54;10.75;;;9.65;;
55082;SDS011;40978;52.850;6.506;2022-07-24T06:10:20;11.75;;;9.77;;
55082;SDS011;40978;52.850;6.506;2022-07-24T06:12:45;10.90;;;9.80;;
55082;SDS011;40978;52.850;6.506;2022-07-24T06:15:11;10.52;;;9.27;;
55082;SDS011;40978;52.850;6.506;2022-07-24T06:17:37;10.07;;;9.18;;
55082;SDS011;40978;52.850;6.506;2022-07-24T06:20:04;10.65;;;9.65;;
55082;SDS011;40978;52.850;6.506;2022-07-24T06:22:30;10.40;;;9.38;;
55082;SDS011;40978;52.850;6.506;2022-07-24T06:24:56;11.35;;;10.25;;
55082;SDS011;40978;52.850;6.506;2022-07-24T06:27:22;11.77;;;10.57;;
55082;SDS011;40978;52.850;6.506;2022-07-24T06:29:48;10.73;;;9.73;;
55082;SDS011;40978;52.850;6.506;2022-07-24T06:32:13;11.68;;;10.55;;
55082;SDS011;40978;52.850;6.506;2022-07-24T06:34:39;11.82;;;10.73;;
55082;SDS011;40978;52.850;6.506;2022-07-24T06:37:05;12.05;;;10.82;;
55082;SDS011;40978;52.850;6.506;2022-07-24T06:39:30;11.55;;;10.30;;
55082;SDS011;40978;52.850;6.506;2022-07-24T06:41:56;12.55;;;11.25;;
55082;SDS011;40978;52.850;6.506;2022-07-24T06:44:22;12.65;;;11.05;;
55082;SDS011;40978;52.850;6.506;2022-07-24T06:46:47;11.48;;;10.30;;
55082;SDS011;40978;52.850;6.506;2022-07-24T06:49:13;20.23;;;17.38;;
55082;SDS011;40978;52.850;6.506;2022-07-24T06:51:39;13.38;;;12.07;;
55082;SDS011;40978;52.850;6.506;2022-07-24T06:54:05;12.70;;;11.38;;
55082;SDS011;40978;52.850;6.506;2022-07-24T06:56:30;12.18;;;10.90;;
55082;SDS011;40978;52.850;6.506;2022-07-24T06:58:56;12.10;;;11.00;;
55082;SDS011;40978;52.850;6.506;2022-07-24T07:01:23;11.70;;;10.60;;
55082;SDS011;40978;52.850;6.506;2022-07-24T07:03:51;13.27;;;11.95;;
55082;SDS011;40978;52.850;6.506;2022-07-24T07:06:18;14.65;;;11.77;;
55082;SDS011;40978;52.850;6.506;2022-07-24T07:08:44;12.57;;;11.27;;
55082;SDS011;40978;52.850;6.506;2022-07-24T07:11:09;15.18;;;11.50;;
55082;SDS011;40978;52.850;6.506;2022-07-24T07:13:35;12.95;;;11.70;;
55082;SDS011;40978;52.850;6.506;2022-07-24T07:16:01;14.00;;;12.35;;
55082;SDS011;40978;52.850;6.506;2022-07-24T07:18:27;10.90;;;9.80;;
55082;SDS011;40978;52.850;6.506;2022-07-24T07:20:53;12.18;;;10.98;;
55082;SDS011;40978;52.850;6.506;2022-07-24T07:23:20;18.85;;;12.48;;
55082;SDS011;40978;52.850;6.506;2022-07-24T07:25:47;12.80;;;11.60;;
55082;SDS011;40978;52.850;6.506;2022-07-24T07:28:13;13.15;;;11.85;;
55082;SDS011;40978;52.850;6.506;2022-07-24T07:30:39;13.10;;;11.20;;
55082;SDS011;40978;52.850;6.506;2022-07-24T07:33:04;12.27;;;10.88;;
55082;SDS011;40978;52.850;6.506;2022-07-24T07:35:30;11.70;;;10.38;;
55082;SDS011;40978;52.850;6.506;2022-07-24T07:37:56;10.93;;;9.70;;
55082;SDS011;40978;52.850;6.506;2022-07-24T07:40:22;10.27;;;9.10;;
55082;SDS011;40978;52.850;6.506;2022-07-24T07:42:49;11.57;;;9.50;;
55082;SDS011;40978;52.850;6.506;2022-07-24T07:45:14;10.38;;;9.23;;
55082;SDS011;40978;52.850;6.506;2022-07-24T07:47:40;44.17;;;38.92;;
55082;SDS011;40978;52.850;6.506;2022-07-24T07:50:06;13.60;;;12.27;;
55082;SDS011;40978;52.850;6.506;2022-07-24T07:52:32;11.20;;;8.70;;
55082;SDS011;40978;52.850;6.506;2022-07-24T07:54:58;9.10;;;7.32;;
55082;SDS011;40978;52.850;6.506;2022-07-24T07:57:23;9.10;;;6.45;;
55082;SDS011;40978;52.850;6.506;2022-07-24T07:59:49;7.55;;;5.15;;
55082;SDS011;40978;52.850;6.506;2022-07-24T08:02:15;7.10;;;4.90;;
55082;SDS011;40978;52.850;6.506;2022-07-24T08:04:41;5.30;;;4.28;;
55082;SDS011;40978;52.850;6.506;2022-07-24T08:07:07;7.18;;;3.95;;
55082;SDS011;40978;52.850;6.506;2022-07-24T08:09:32;4.60;;;3.65;;
55082;SDS011;40978;52.850;6.506;2022-07-24T08:11:58;4.32;;;3.13;;
55082;SDS011;40978;52.850;6.506;2022-07-24T08:14:24;3.67;;;2.95;;
55082;SDS011;40978;52.850;6.506;2022-07-24T08:16:50;3.47;;;3.00;;
55082;SDS011;40978;52.850;6.506;2022-07-24T08:19:15;3.78;;;3.05;;
55082;SDS011;40978;52.850;6.506;2022-07-24T08:21:41;4.57;;;2.75;;
55082;SDS011;40978;52.850;6.506;2022-07-24T08:24:07;4.63;;;3.05;;
55082;SDS011;40978;52.850;6.506;2022-07-24T08:26:32;4.00;;;2.78;;
55082;SDS011;40978;52.850;6.506;2022-07-24T08:28:58;6.72;;;6.03;;
55082;SDS011;40978;52.850;6.506;2022-07-24T08:31:25;4.20;;;3.83;;
55082;SDS011;40978;52.850;6.506;2022-07-24T08:33:51;3.90;;;3.08;;
55082;SDS011;40978;52.850;6.506;2022-07-24T08:36:16;4.10;;;2.78;;
55082;SDS011;40978;52.850;6.506;2022-07-24T08:38:42;4.45;;;2.85;;
55082;SDS011;40978;52.850;6.506;2022-07-24T08:41:08;3.22;;;2.00;;
55082;SDS011;40978;52.850;6.506;2022-07-24T08:43:34;2.55;;;2.10;;
55082;SDS011;40978;52.850;6.506;2022-07-24T08:46:00;3.20;;;1.90;;
55082;SDS011;40978;52.850;6.506;2022-07-24T08:48:27;2.85;;;1.75;;
55082;SDS011;40978;52.850;6.506;2022-07-24T08:50:53;2.45;;;1.77;;
55082;SDS011;40978;52.850;6.506;2022-07-24T08:53:20;2.42;;;1.60;;
55082;SDS011;40978;52.850;6.506;2022-07-24T08:55:47;2.70;;;1.98;;
55082;SDS011;40978;52.850;6.506;2022-07-24T08:58:13;1.90;;;1.40;;
55082;SDS011;40978;52.850;6.506;2022-07-24T09:00:39;3.25;;;2.00;;
55082;SDS011;40978;52.850;6.506;2022-07-24T09:03:06;1.75;;;1.50;;
55082;SDS011;40978;52.850;6.506;2022-07-24T09:05:32;1.80;;;1.60;;
55082;SDS011;40978;52.850;6.506;2022-07-24T09:08:09;2.60;;;1.48;;
55082;SDS011;40978;52.850;6.506;2022-07-24T09:10:36;3.17;;;1.52;;
55082;SDS011;40978;52.850;6.506;2022-07-24T09:13:12;2.33;;;1.52;;
55082;SDS011;40978;52.850;6.506;2022-07-24T09:15:50;2.10;;;1.60;;
55082;SDS011;40978;52.850;6.506;2022-07-24T09:18:28;2.13;;;1.55;;
55082;SDS011;40978;52.850;6.506;2022-07-24T09:20:59;2.08;;;1.40;;
55082;SDS011;40978;52.850;6.506;2022-07-24T09:23:37;2.08;;;1.50;;
55082;SDS011;40978;52.850;6.506;2022-07-24T09:26:04;2.50;;;1.40;;
55082;SDS011;40978;52.850;6.506;2022-07-24T09:28:34;2.17;;;1.55;;
55082;SDS011;40978;52.850;6.506;2022-07-24T09:31:17;3.28;;;1.67;;
55082;SDS011;40978;52.850;6.506;2022-07-24T09:33:43;2.83;;;1.67;;
55082;SDS011;40978;52.850;6.506;2022-07-24T09:36:13;1.50;;;1.23;;
55082;SDS011;40978;52.850;6.506;2022-07-24T09:38:46;2.03;;;1.35;;
55082;SDS011;40978;52.850;6.506;2022-07-24T09:41:22;5.30;;;3.42;;
55082;SDS011;40978;52.850;6.506;2022-07-24T09:43:56;3.20;;;1.52;;
55082;SDS011;40978;52.850;6.506;2022-07-24T09:46:25;1.55;;;1.10;;
55082;SDS011;40978;52.850;6.506;2022-07-24T09:48:56;2.33;;;1.15;;
55082;SDS011;40978;52.850;6.506;2022-07-24T09:51:24;2.40;;;1.73;;
55082;SDS011;40978;52.850;6.506;2022-07-24T09:53:58;2.50;;;1.55;;
55082;SDS011;40978;52.850;6.506;2022-07-24T09:58:51;2.65;;;1.25;;
55082;SDS011;40978;52.850;6.506;2022-07-24T10:01:20;3.17;;;1.25;;
55082;SDS011;40978;52.850;6.506;2022-07-24T10:03:47;2.25;;;1.25;;
55082;SDS011;40978;52.850;6.506;2022-07-24T10:06:15;1.48;;;1.20;;
55082;SDS011;40978;52.850;6.506;2022-07-24T10:08:43;2.05;;;1.08;;
55082;SDS011;40978;52.850;6.506;2022-07-24T10:11:11;5.07;;;1.38;;
55082;SDS011;40978;52.850;6.506;2022-07-24T10:13:38;3.38;;;1.67;;
55082;SDS011;40978;52.850;6.506;2022-07-24T10:21:39;25.95;;;23.90;;
55082;SDS011;40978;52.850;6.506;2022-07-24T10:27:03;3.75;;;3.45;;
55082;SDS011;40978;52.850;6.506;2022-07-24T10:29:29;2.45;;;1.55;;
55082;SDS011;40978;52.850;6.506;2022-07-24T10:31:58;2.45;;;1.33;;
55082;SDS011;40978;52.850;6.506;2022-07-24T10:48:36;2.03;;;1.20;;
55082;SDS011;40978;52.850;6.506;2022-07-24T10:51:11;2.28;;;1.20;;
55082;SDS011;40978;52.850;6.506;2022-07-24T10:53:43;1.77;;;1.23;;
55082;SDS011;40978;52.850;6.506;2022-07-24T11:06:45;2.33;;;1.40;;
55082;SDS011;40978;52.850;6.506;2022-07-24T11:09:12;2.33;;;1.30;;
55082;SDS011;40978;52.850;6.506;2022-07-24T11:11:42;1.85;;;1.00;;
55082;SDS011;40978;52.850;6.506;2022-07-24T11:20:01;1.60;;;1.50;;
55082;SDS011;40978;52.850;6.506;2022-07-24T11:25:27;2.47;;;1.02;;
55082;SDS011;40978;52.850;6.506;2022-07-24T11:28:00;1.70;;;0.80;;
55082;SDS011;40978;52.850;6.506;2022-07-24T11:30:41;3.83;;;1.10;;
55082;SDS011;40978;52.850;6.506;2022-07-24T11:33:09;3.50;;;1.30;;
55082;SDS011;40978;52.850;6.506;2022-07-24T11:35:36;3.03;;;1.45;;
55082;SDS011;40978;52.850;6.506;2022-07-24T11:38:04;2.05;;;1.50;;
55082;SDS011;40978;52.850;6.506;2022-07-24T11:40:31;1.77;;;1.08;;
55082;SDS011;40978;52.850;6.506;2022-07-24T11:42:59;2.00;;;0.80;;
55082;SDS011;40978;52.850;6.506;2022-07-24T11:45:26;38.00;;;34.70;;
55082;SDS011;40978;52.850;6.506;2022-07-24T11:47:52;10.10;;;3.45;;
55082;SDS011;40978;52.850;6.506;2022-07-24T11:50:22;4.47;;;2.20;;
55082;SDS011;40978;52.850;6.506;2022-07-24T11:52:48;1.67;;;1.15;;
55082;SDS011;40978;52.850;6.506;2022-07-24T11:55:15;3.55;;;1.42;;
55082;SDS011;40978;52.850;6.506;2022-07-24T11:57:44;1.38;;;1.02;;
55082;SDS011;40978;52.850;6.506;2022-07-24T12:00:13;3.40;;;0.93;;
55082;SDS011;40978;52.850;6.506;2022-07-24T12:02:51;2.20;;;1.10;;
55082;SDS011;40978;52.850;6.506;2022-07-24T12:05:26;2.03;;;1.10;;
55082;SDS011;40978;52.850;6.506;2022-07-24T12:07:59;12.00;;;10.45;;
55082;SDS011;40978;52.850;6.506;2022-07-24T12:10:25;1.35;;;1.13;;
55082;SDS011;40978;52.850;6.506;2022-07-24T12:12:53;3.00;;;1.10;;
55082;SDS011;40978;52.850;6.506;2022-07-24T12:15:20;1.52;;;0.93;;
55082;SDS011;40978;52.850;6.506;2022-07-24T12:20:36;1.85;;;1.38;;
55082;SDS011;40978;52.850;6.506;2022-07-24T12:23:04;5.85;;;1.35;;
55082;SDS011;40978;52.850;6.506;2022-07-24T12:25:32;4.35;;;1.40;;
55082;SDS011;40978;52.850;6.506;2022-07-24T12:28:05;1.52;;;1.10;;
55082;SDS011;40978;52.850;6.506;2022-07-24T12:33:03;1.42;;;1.00;;
55082;SDS011;40978;52.850;6.506;2022-07-24T12:35:55;3.03;;;1.30;;
55082;SDS011;40978;52.850;6.506;2022-07-24T12:38:26;2.17;;;1.40;;
55082;SDS011;40978;52.850;6.506;2022-07-24T12:41:10;2.53;;;1.60;;
55082;SDS011;40978;52.850;6.506;2022-07-24T12:43:46;4.18;;;1.80;;
55082;SDS011;40978;52.850;6.506;2022-07-24T12:46:13;2.35;;;1.38;;
55082;SDS011;40978;52.850;6.506;2022-07-24T12:48:39;1.98;;;1.20;;
55082;SDS011;40978;52.850;6.506;2022-07-24T12:51:09;1.50;;;1.20;;
55082;SDS011;40978;52.850;6.506;2022-07-24T12:53:41;3.90;;;1.20;;
55082;SDS011;40978;52.850;6.506;2022-07-24T12:58:46;2.45;;;1.20;;
55082;SDS011;40978;52.850;6.506;2022-07-24T13:01:12;2.08;;;1.48;;
55082;SDS011;40978;52.850;6.506;2022-07-24T13:03:38;3.60;;;1.40;;
55082;SDS011;40978;52.850;6.506;2022-07-24T13:06:04;1.55;;;1.30;;
55082;SDS011;40978;52.850;6.506;2022-07-24T13:08:29;1.65;;;1.48;;
55082;SDS011;40978;52.850;6.506;2022-07-24T13:10:55;2.30;;;1.20;;
55082;SDS011;40978;52.850;6.506;2022-07-24T13:13:22;3.88;;;3.47;;
55082;SDS011;40978;52.850;6.506;2022-07-24T13:15:47;2.25;;;1.60;;
55082;SDS011;40978;52.850;6.506;2022-07-24T13:18:13;2.90;;;1.40;;
55082;SDS011;40978;52.850;6.506;2022-07-24T13:20:39;2.45;;;1.40;;
55082;SDS011;40978;52.850;6.506;2022-07-24T13:23:04;2.53;;;1.23;;
55082;SDS011;40978;52.850;6.506;2022-07-24T13:25:30;3.63;;;1.60;;
55082;SDS011;40978;52.850;6.506;2022-07-24T13:27:56;3.58;;;1.30;;
55082;SDS011;40978;52.850;6.506;2022-07-24T13:30:21;1.85;;;0.98;;
55082;SDS011;40978;52.850;6.506;2022-07-24T13:32:47;1.95;;;1.10;;
55082;SDS011;40978;52.850;6.506;2022-07-24T13:35:13;2.45;;;1.30;;
55082;SDS011;40978;52.850;6.506;2022-07-24T13:37:38;1.77;;;1.23;;
55082;SDS011;40978;52.850;6.506;2022-07-24T13:40:04;2.97;;;1.10;;
55082;SDS011;40978;52.850;6.506;2022-07-24T13:42:32;2.83;;;1.38;;
55082;SDS011;40978;52.850;6.506;2022-07-24T13:44:59;4.60;;;1.42;;
55082;SDS011;40978;52.850;6.506;2022-07-24T13:47:24;3.83;;;1.50;;
55082;SDS011;40978;52.850;6.506;2022-07-24T13:49:50;2.50;;;1.33;;
55082;SDS011;40978;52.850;6.506;2022-07-24T13:52:16;1.50;;;1.15;;
55082;SDS011;40978;52.850;6.506;2022-07-24T13:54:41;1.83;;;1.27;;
55082;SDS011;40978;52.850;6.506;2022-07-24T13:57:07;1.77;;;1.20;;
55082;SDS011;40978;52.850;6.506;2022-07-24T13:59:33;1.48;;;1.13;;
55082;SDS011;40978;52.850;6.506;2022-07-24T14:02:00;2.53;;;1.15;;
55082;SDS011;40978;52.850;6.506;2022-07-24T14:04:25;2.22;;;1.20;;
55082;SDS011;40978;52.850;6.506;2022-07-24T14:06:51;2.13;;;1.45;;
55082;SDS011;40978;52.850;6.506;2022-07-24T14:09:17;1.45;;;1.20;;
55082;SDS011;40978;52.850;6.506;2022-07-24T14:11:43;2.33;;;1.40;;
55082;SDS011;40978;52.850;6.506;2022-07-24T14:14:09;3.33;;;1.60;;
55082;SDS011;40978;52.850;6.506;2022-07-24T14:16:34;2.72;;;1.48;;
55082;SDS011;40978;52.850;6.506;2022-07-24T14:19:02;2.25;;;1.35;;
55082;SDS011;40978;52.850;6.506;2022-07-24T14:21:27;2.17;;;1.38;;
55082;SDS011;40978;52.850;6.506;2022-07-24T14:23:55;2.92;;;1.52;;
55082;SDS011;40978;52.850;6.506;2022-07-24T14:26:21;2.20;;;1.20;;
55082;SDS011;40978;52.850;6.506;2022-07-24T14:28:46;2.35;;;1.70;;
55082;SDS011;40978;52.850;6.506;2022-07-24T14:31:12;2.38;;;1.40;;
55082;SDS011;40978;52.850;6.506;2022-07-24T14:33:38;2.47;;;1.50;;
55082;SDS011;40978;52.850;6.506;2022-07-24T14:36:04;1.60;;;1.40;;
55082;SDS011;40978;52.850;6.506;2022-07-24T14:38:30;2.65;;;1.48;;
55082;SDS011;40978;52.850;6.506;2022-07-24T14:40:56;2.17;;;1.60;;
55082;SDS011;40978;52.850;6.506;2022-07-24T14:43:21;2.30;;;1.67;;
55082;SDS011;40978;52.850;6.506;2022-07-24T14:45:47;3.90;;;1.70;;
55082;SDS011;40978;52.850;6.506;2022-07-24T14:48:13;2.00;;;1.55;;
55082;SDS011;40978;52.850;6.506;2022-07-24T14:50:38;2.40;;;1.65;;
55082;SDS011;40978;52.850;6.506;2022-07-24T14:53:04;1.67;;;1.45;;
55082;SDS011;40978;52.850;6.506;2022-07-24T14:55:29;2.50;;;1.63;;
55082;SDS011;40978;52.850;6.506;2022-07-24T14:57:55;1.63;;;1.50;;
55082;SDS011;40978;52.850;6.506;2022-07-24T15:00:21;2.45;;;1.40;;
55082;SDS011;40978;52.850;6.506;2022-07-24T15:02:47;2.40;;;1.58;;
55082;SDS011;40978;52.850;6.506;2022-07-24T15:05:13;2.25;;;1.42;;
55082;SDS011;40978;52.850;6.506;2022-07-24T15:07:38;2.38;;;1.40;;
55082;SDS011;40978;52.850;6.506;2022-07-24T15:10:04;2.33;;;1.65;;
55082;SDS011;40978;52.850;6.506;2022-07-24T15:12:30;3.35;;;1.58;;
55082;SDS011;40978;52.850;6.506;2022-07-24T15:14:56;2.60;;;1.50;;
55082;SDS011;40978;52.850;6.506;2022-07-24T15:17:21;2.15;;;1.60;;
55082;SDS011;40978;52.850;6.506;2022-07-24T15:19:47;2.78;;;1.50;;
55082;SDS011;40978;52.850;6.506;2022-07-24T15:22:13;3.15;;;1.58;;
55082;SDS011;40978;52.850;6.506;2022-07-24T15:24:38;2.15;;;1.75;;
55082;SDS011;40978;52.850;6.506;2022-07-24T15:27:04;2.70;;;1.60;;
55082;SDS011;40978;52.850;6.506;2022-07-24T15:29:29;2.20;;;1.75;;
55082;SDS011;40978;52.850;6.506;2022-07-24T15:31:56;2.80;;;2.33;;